sensor_id;sensor_type;location;lat;lon;timestamp;P1;durP1;ratioP1;P2;durP2;ratioP2
8040;SDS011;4063;48.140;10.250;2023-07-31T00:00:26;3.88;;;2.70;;
8040;SDS011;4063;48.140;10.250;2023-07-31T00:02:52;3.08;;;2.70;;
8040;SDS011;4063;48.140;10.250;2023-07-31T00:05:18;4.57;;;3.30;;
8040;SDS011;4063;48.140;10.250;2023-07-31T00:07:44;3.00;;;2.70;;
8040;SDS011;4063;48.140;10.250;2023-07-31T00:10:10;3.60;;;2.97;;
8040;SDS011;4063;48.140;10.250;2023-07-31T00:12:37;4.47;;;3.35;;
8040;SDS011;4063;48.140;10.250;2023-07-31T00:15:04;4.50;;;3.30;;
8040;SDS011;4063;48.140;10.250;2023-07-31T00:17:30;4.53;;;3.70;;
8040;SDS011;4063;48.140;10.250;2023-07-31T00:19:56;4.63;;;3.40;;
8040;SDS011;4063;48.140;10.250;2023-07-31T00:22:22;3.55;;;2.63;;
8040;SDS011;4063;48.140;10.250;2023-07-31T00:24:48;7.15;;;3.60;;
8040;SDS011;4063;48.140;10.250;2023-07-31T00:27:14;3.42;;;3.08;;
8040;SDS011;4063;48.140;10.250;2023-07-31T00:29:40;3.17;;;2.95;;
8040;SDS011;4063;48.140;10.250;2023-07-31T00:32:06;6.38;;;3.28;;
8040;SDS011;4063;48.140;10.250;2023-07-31T00:34:32;5.55;;;4.07;;
8040;SDS011;4063;48.140;10.250;2023-07-31T00:36:58;5.47;;;2.88;;
8040;SDS011;4063;48.140;10.250;2023-07-31T00:39:24;4.32;;;3.38;;
8040;SDS011;4063;48.140;10.250;2023-07-31T00:41:50;6.60;;;3.33;;
8040;SDS011;4063;48.140;10.250;2023-07-31T00:44:16;4.10;;;3.10;;
8040;SDS011;4063;48.140;10.250;2023-07-31T00:46:42;6.18;;;3.70;;
8040;SDS011;4063;48.140;10.250;2023-07-31T00:49:08;4.10;;;3.28;;
8040;SDS011;4063;48.140;10.250;2023-07-31T00:51:34;4.15;;;3.10;;
8040;SDS011;4063;48.140;10.250;2023-07-31T00:54:00;6.55;;;3.67;;
8040;SDS011;4063;48.140;10.250;2023-07-31T00:56:27;5.82;;;3.80;;
8040;SDS011;4063;48.140;10.250;2023-07-31T00:58:54;4.15;;;3.50;;
8040;SDS011;4063;48.140;10.250;2023-07-31T01:01:20;4.43;;;3.67;;
8040;SDS011;4063;48.140;10.250;2023-07-31T01:03:47;6.15;;;3.63;;
8040;SDS011;4063;48.140;10.250;2023-07-31T01:06:25;4.18;;;3.05;;
8040;SDS011;4063;48.140;10.250;2023-07-31T01:09:04;5.13;;;3.70;;
8040;SDS011;4063;48.140;10.250;2023-07-31T01:11:38;4.60;;;3.53;;
8040;SDS011;4063;48.140;10.250;2023-07-31T01:14:05;6.25;;;3.40;;
8040;SDS011;4063;48.140;10.250;2023-07-31T01:16:31;6.97;;;3.65;;
8040;SDS011;4063;48.140;10.250;2023-07-31T01:18:57;4.22;;;3.22;;
8040;SDS011;4063;48.140;10.250;2023-07-31T01:26:33;4.00;;;3.10;;
8040;SDS011;4063;48.140;10.250;2023-07-31T01:29:01;5.85;;;3.00;;
8040;SDS011;4063;48.140;10.250;2023-07-31T01:31:29;6.13;;;3.00;;
8040;SDS011;4063;48.140;10.250;2023-07-31T01:33:56;5.30;;;3.15;;
8040;SDS011;4063;48.140;10.250;2023-07-31T01:36:23;4.15;;;2.95;;
8040;SDS011;4063;48.140;10.250;2023-07-31T01:38:49;3.20;;;2.55;;
8040;SDS011;4063;48.140;10.250;2023-07-31T01:41:18;3.80;;;2.97;;
8040;SDS011;4063;48.140;10.250;2023-07-31T01:43:45;3.53;;;2.72;;
8040;SDS011;4063;48.140;10.250;2023-07-31T01:46:11;3.97;;;3.00;;
8040;SDS011;4063;48.140;10.250;2023-07-31T01:48:37;8.40;;;3.30;;
8040;SDS011;4063;48.140;10.250;2023-07-31T01:51:03;3.78;;;2.95;;
8040;SDS011;4063;48.140;10.250;2023-07-31T01:53:30;3.45;;;2.83;;
8040;SDS011;4063;48.140;10.250;2023-07-31T01:55:56;5.32;;;3.47;;
8040;SDS011;4063;48.140;10.250;2023-07-31T01:58:22;3.70;;;3.40;;
8040;SDS011;4063;48.140;10.250;2023-07-31T02:00:48;3.50;;;3.20;;
8040;SDS011;4063;48.140;10.250;2023-07-31T02:03:14;5.72;;;3.40;;
8040;SDS011;4063;48.140;10.250;2023-07-31T02:05:44;5.47;;;3.45;;
8040;SDS011;4063;48.140;10.250;2023-07-31T02:08:10;3.20;;;2.90;;
8040;SDS011;4063;48.140;10.250;2023-07-31T02:10:36;3.90;;;2.90;;
8040;SDS011;4063;48.140;10.250;2023-07-31T02:13:02;4.40;;;3.03;;
8040;SDS011;4063;48.140;10.250;2023-07-31T02:15:29;3.53;;;3.22;;
8040;SDS011;4063;48.140;10.250;2023-07-31T02:17:55;4.95;;;3.20;;
8040;SDS011;4063;48.140;10.250;2023-07-31T02:20:21;4.35;;;2.92;;
8040;SDS011;4063;48.140;10.250;2023-07-31T02:22:47;7.65;;;3.40;;
8040;SDS011;4063;48.140;10.250;2023-07-31T02:25:13;3.92;;;3.30;;
8040;SDS011;4063;48.140;10.250;2023-07-31T02:27:39;5.13;;;3.30;;
8040;SDS011;4063;48.140;10.250;2023-07-31T02:30:05;4.53;;;3.50;;
8040;SDS011;4063;48.140;10.250;2023-07-31T02:32:31;4.57;;;3.55;;
8040;SDS011;4063;48.140;10.250;2023-07-31T02:34:57;4.03;;;3.60;;
8040;SDS011;4063;48.140;10.250;2023-07-31T02:37:23;4.70;;;3.33;;
8040;SDS011;4063;48.140;10.250;2023-07-31T02:39:49;3.53;;;3.05;;
8040;SDS011;4063;48.140;10.250;2023-07-31T02:42:15;3.92;;;3.20;;
8040;SDS011;4063;48.140;10.250;2023-07-31T02:47:45;10.10;;;3.88;;
8040;SDS011;4063;48.140;10.250;2023-07-31T02:50:11;4.72;;;3.45;;
8040;SDS011;4063;48.140;10.250;2023-07-31T02:52:37;5.85;;;3.35;;
8040;SDS011;4063;48.140;10.250;2023-07-31T02:55:03;5.05;;;3.50;;
8040;SDS011;4063;48.140;10.250;2023-07-31T02:57:29;3.75;;;3.25;;
8040;SDS011;4063;48.140;10.250;2023-07-31T02:59:55;3.28;;;2.97;;
8040;SDS011;4063;48.140;10.250;2023-07-31T03:02:21;4.57;;;3.40;;
8040;SDS011;4063;48.140;10.250;2023-07-31T03:04:47;4.45;;;3.33;;
8040;SDS011;4063;48.140;10.250;2023-07-31T03:07:13;5.28;;;3.60;;
8040;SDS011;4063;48.140;10.250;2023-07-31T03:09:39;3.65;;;3.33;;
8040;SDS011;4063;48.140;10.250;2023-07-31T03:12:05;4.90;;;3.22;;
8040;SDS011;4063;48.140;10.250;2023-07-31T03:14:31;3.30;;;3.00;;
8040;SDS011;4063;48.140;10.250;2023-07-31T03:16:57;3.47;;;3.17;;
8040;SDS011;4063;48.140;10.250;2023-07-31T03:19:22;5.60;;;3.42;;
8040;SDS011;4063;48.140;10.250;2023-07-31T03:21:48;6.53;;;3.55;;
8040;SDS011;4063;48.140;10.250;2023-07-31T03:24:14;5.18;;;3.28;;
8040;SDS011;4063;48.140;10.250;2023-07-31T03:26:40;4.32;;;3.28;;
8040;SDS011;4063;48.140;10.250;2023-07-31T03:29:07;3.97;;;3.58;;
8040;SDS011;4063;48.140;10.250;2023-07-31T03:31:33;4.75;;;3.10;;
8040;SDS011;4063;48.140;10.250;2023-07-31T03:33:59;4.80;;;3.40;;
8040;SDS011;4063;48.140;10.250;2023-07-31T03:36:25;5.43;;;3.60;;
8040;SDS011;4063;48.140;10.250;2023-07-31T03:38:51;3.70;;;3.13;;
8040;SDS011;4063;48.140;10.250;2023-07-31T03:41:17;5.43;;;3.55;;
8040;SDS011;4063;48.140;10.250;2023-07-31T03:43:43;3.70;;;3.10;;
8040;SDS011;4063;48.140;10.250;2023-07-31T03:46:09;4.15;;;3.75;;
8040;SDS011;4063;48.140;10.250;2023-07-31T03:48:35;4.32;;;3.50;;
8040;SDS011;4063;48.140;10.250;2023-07-31T03:51:02;5.10;;;3.47;;
8040;SDS011;4063;48.140;10.250;2023-07-31T03:53:28;7.22;;;3.63;;
8040;SDS011;4063;48.140;10.250;2023-07-31T03:55:54;4.13;;;3.40;;
8040;SDS011;4063;48.140;10.250;2023-07-31T03:58:20;4.47;;;3.40;;
8040;SDS011;4063;48.140;10.250;2023-07-31T04:00:46;4.80;;;3.60;;
8040;SDS011;4063;48.140;10.250;2023-07-31T04:03:12;5.18;;;3.67;;
8040;SDS011;4063;48.140;10.250;2023-07-31T04:05:38;5.72;;;3.60;;
8040;SDS011;4063;48.140;10.250;2023-07-31T04:08:05;4.18;;;3.20;;
8040;SDS011;4063;48.140;10.250;2023-07-31T04:10:31;7.75;;;3.38;;
8040;SDS011;4063;48.140;10.250;2023-07-31T04:12:58;4.88;;;3.40;;
8040;SDS011;4063;48.140;10.250;2023-07-31T04:15:25;4.05;;;3.15;;
8040;SDS011;4063;48.140;10.250;2023-07-31T04:17:51;3.88;;;3.50;;
8040;SDS011;4063;48.140;10.250;2023-07-31T04:20:17;8.23;;;3.40;;
8040;SDS011;4063;48.140;10.250;2023-07-31T04:22:43;3.25;;;2.95;;
8040;SDS011;4063;48.140;10.250;2023-07-31T04:25:09;4.38;;;3.17;;
8040;SDS011;4063;48.140;10.250;2023-07-31T04:27:35;4.03;;;2.83;;
8040;SDS011;4063;48.140;10.250;2023-07-31T04:30:01;4.47;;;3.38;;
8040;SDS011;4063;48.140;10.250;2023-07-31T04:32:26;4.80;;;3.25;;
8040;SDS011;4063;48.140;10.250;2023-07-31T04:34:53;4.53;;;3.33;;
8040;SDS011;4063;48.140;10.250;2023-07-31T04:37:19;4.53;;;3.30;;
8040;SDS011;4063;48.140;10.250;2023-07-31T04:39:45;4.75;;;3.30;;
8040;SDS011;4063;48.140;10.250;2023-07-31T04:42:11;4.28;;;3.20;;
8040;SDS011;4063;48.140;10.250;2023-07-31T04:44:37;3.45;;;3.15;;
8040;SDS011;4063;48.140;10.250;2023-07-31T04:47:03;5.28;;;3.20;;
8040;SDS011;4063;48.140;10.250;2023-07-31T04:49:29;3.30;;;2.67;;
8040;SDS011;4063;48.140;10.250;2023-07-31T04:51:55;3.75;;;3.00;;
8040;SDS011;4063;48.140;10.250;2023-07-31T04:54:21;4.70;;;2.90;;
8040;SDS011;4063;48.140;10.250;2023-07-31T04:56:47;4.93;;;2.58;;
8040;SDS011;4063;48.140;10.250;2023-07-31T04:59:13;3.15;;;2.60;;
8040;SDS011;4063;48.140;10.250;2023-07-31T05:01:39;3.97;;;2.50;;
8040;SDS011;4063;48.140;10.250;2023-07-31T05:04:05;5.78;;;2.88;;
8040;SDS011;4063;48.140;10.250;2023-07-31T05:06:31;3.75;;;2.50;;
8040;SDS011;4063;48.140;10.250;2023-07-31T05:08:57;2.92;;;2.50;;
8040;SDS011;4063;48.140;10.250;2023-07-31T05:11:23;4.50;;;2.40;;
8040;SDS011;4063;48.140;10.250;2023-07-31T05:13:49;11.98;;;2.97;;
8040;SDS011;4063;48.140;10.250;2023-07-31T05:16:15;3.25;;;2.40;;
8040;SDS011;4063;48.140;10.250;2023-07-31T05:18:41;7.38;;;2.50;;
8040;SDS011;4063;48.140;10.250;2023-07-31T05:21:07;2.80;;;2.30;;
8040;SDS011;4063;48.140;10.250;2023-07-31T05:23:33;4.00;;;2.78;;
8040;SDS011;4063;48.140;10.250;2023-07-31T05:26:03;3.25;;;2.42;;
8040;SDS011;4063;48.140;10.250;2023-07-31T05:28:29;2.88;;;2.53;;
8040;SDS011;4063;48.140;10.250;2023-07-31T05:30:59;2.80;;;2.40;;
8040;SDS011;4063;48.140;10.250;2023-07-31T05:33:25;4.80;;;2.40;;
8040;SDS011;4063;48.140;10.250;2023-07-31T05:35:50;3.35;;;2.40;;
8040;SDS011;4063;48.140;10.250;2023-07-31T05:38:16;4.43;;;2.60;;
8040;SDS011;4063;48.140;10.250;2023-07-31T05:40:42;5.78;;;2.63;;
8040;SDS011;4063;48.140;10.250;2023-07-31T05:43:08;4.22;;;2.67;;
8040;SDS011;4063;48.140;10.250;2023-07-31T05:45:35;5.32;;;3.03;;
8040;SDS011;4063;48.140;10.250;2023-07-31T05:48:01;3.22;;;2.60;;
8040;SDS011;4063;48.140;10.250;2023-07-31T05:50:27;3.80;;;2.47;;
8040;SDS011;4063;48.140;10.250;2023-07-31T05:52:53;2.40;;;2.20;;
8040;SDS011;4063;48.140;10.250;2023-07-31T05:55:19;2.40;;;2.20;;
8040;SDS011;4063;48.140;10.250;2023-07-31T05:57:46;6.50;;;2.45;;
8040;SDS011;4063;48.140;10.250;2023-07-31T06:00:12;5.28;;;2.30;;
8040;SDS011;4063;48.140;10.250;2023-07-31T06:02:38;3.78;;;2.13;;
8040;SDS011;4063;48.140;10.250;2023-07-31T06:05:04;2.78;;;2.30;;
8040;SDS011;4063;48.140;10.250;2023-07-31T06:07:31;4.35;;;2.85;;
8040;SDS011;4063;48.140;10.250;2023-07-31T06:09:57;4.47;;;2.58;;
8040;SDS011;4063;48.140;10.250;2023-07-31T06:12:29;4.45;;;2.03;;
8040;SDS011;4063;48.140;10.250;2023-07-31T06:14:55;5.55;;;2.72;;
8040;SDS011;4063;48.140;10.250;2023-07-31T06:17:21;3.63;;;2.55;;
8040;SDS011;4063;48.140;10.250;2023-07-31T06:19:49;3.35;;;2.30;;
8040;SDS011;4063;48.140;10.250;2023-07-31T06:22:15;2.72;;;2.30;;
8040;SDS011;4063;48.140;10.250;2023-07-31T06:24:41;3.13;;;2.38;;
8040;SDS011;4063;48.140;10.250;2023-07-31T06:27:07;2.90;;;2.00;;
8040;SDS011;4063;48.140;10.250;2023-07-31T06:29:33;2.92;;;2.38;;
8040;SDS011;4063;48.140;10.250;2023-07-31T06:31:59;4.97;;;2.35;;
8040;SDS011;4063;48.140;10.250;2023-07-31T06:34:25;4.90;;;2.17;;
8040;SDS011;4063;48.140;10.250;2023-07-31T06:36:51;2.90;;;2.17;;
8040;SDS011;4063;48.140;10.250;2023-07-31T06:39:17;3.80;;;2.53;;
8040;SDS011;4063;48.140;10.250;2023-07-31T06:41:43;6.72;;;2.72;;
8040;SDS011;4063;48.140;10.250;2023-07-31T06:44:09;3.50;;;2.22;;
8040;SDS011;4063;48.140;10.250;2023-07-31T06:46:35;3.33;;;2.10;;
8040;SDS011;4063;48.140;10.250;2023-07-31T06:49:01;5.40;;;2.17;;
8040;SDS011;4063;48.140;10.250;2023-07-31T06:51:27;3.10;;;2.08;;
8040;SDS011;4063;48.140;10.250;2023-07-31T06:53:53;2.40;;;2.17;;
8040;SDS011;4063;48.140;10.250;2023-07-31T06:56:20;4.25;;;2.28;;
8040;SDS011;4063;48.140;10.250;2023-07-31T06:58:46;2.40;;;1.80;;
8040;SDS011;4063;48.140;10.250;2023-07-31T07:01:12;6.03;;;2.33;;
8040;SDS011;4063;48.140;10.250;2023-07-31T07:03:38;3.85;;;1.90;;
8040;SDS011;4063;48.140;10.250;2023-07-31T07:06:04;2.38;;;2.17;;
8040;SDS011;4063;48.140;10.250;2023-07-31T07:08:30;3.35;;;1.90;;
8040;SDS011;4063;48.140;10.250;2023-07-31T07:10:56;4.40;;;2.35;;
8040;SDS011;4063;48.140;10.250;2023-07-31T07:13:22;5.95;;;2.10;;
8040;SDS011;4063;48.140;10.250;2023-07-31T07:15:48;3.13;;;2.28;;
8040;SDS011;4063;48.140;10.250;2023-07-31T07:18:15;3.95;;;2.25;;
8040;SDS011;4063;48.140;10.250;2023-07-31T07:20:46;2.45;;;2.17;;
8040;SDS011;4063;48.140;10.250;2023-07-31T07:23:12;3.30;;;2.03;;
8040;SDS011;4063;48.140;10.250;2023-07-31T07:25:37;2.70;;;1.80;;
8040;SDS011;4063;48.140;10.250;2023-07-31T07:28:03;3.97;;;2.20;;
8040;SDS011;4063;48.140;10.250;2023-07-31T07:30:29;3.90;;;2.42;;
8040;SDS011;4063;48.140;10.250;2023-07-31T07:32:55;4.03;;;2.00;;
8040;SDS011;4063;48.140;10.250;2023-07-31T07:35:21;2.15;;;1.77;;
8040;SDS011;4063;48.140;10.250;2023-07-31T07:37:50;4.28;;;2.22;;
8040;SDS011;4063;48.140;10.250;2023-07-31T07:40:16;4.15;;;2.03;;
8040;SDS011;4063;48.140;10.250;2023-07-31T07:42:42;4.90;;;2.40;;
8040;SDS011;4063;48.140;10.250;2023-07-31T07:45:08;4.07;;;2.05;;
8040;SDS011;4063;48.140;10.250;2023-07-31T07:47:34;3.70;;;1.90;;
8040;SDS011;4063;48.140;10.250;2023-07-31T07:50:00;3.55;;;2.05;;
8040;SDS011;4063;48.140;10.250;2023-07-31T07:52:26;3.53;;;1.90;;
8040;SDS011;4063;48.140;10.250;2023-07-31T07:54:52;2.95;;;1.85;;
8040;SDS011;4063;48.140;10.250;2023-07-31T07:57:18;2.85;;;1.90;;
8040;SDS011;4063;48.140;10.250;2023-07-31T07:59:44;3.20;;;1.98;;
8040;SDS011;4063;48.140;10.250;2023-07-31T08:02:10;4.90;;;1.90;;
8040;SDS011;4063;48.140;10.250;2023-07-31T08:04:36;4.47;;;1.98;;
8040;SDS011;4063;48.140;10.250;2023-07-31T08:07:02;1.98;;;1.50;;
8040;SDS011;4063;48.140;10.250;2023-07-31T08:09:28;3.97;;;2.03;;
8040;SDS011;4063;48.140;10.250;2023-07-31T08:11:54;3.88;;;2.05;;
8040;SDS011;4063;48.140;10.250;2023-07-31T08:14:22;3.50;;;1.98;;
8040;SDS011;4063;48.140;10.250;2023-07-31T08:16:48;2.58;;;1.50;;
8040;SDS011;4063;48.140;10.250;2023-07-31T08:19:14;3.80;;;2.35;;
8040;SDS011;4063;48.140;10.250;2023-07-31T08:21:40;5.07;;;2.40;;
8040;SDS011;4063;48.140;10.250;2023-07-31T08:24:06;2.70;;;1.92;;
8040;SDS011;4063;48.140;10.250;2023-07-31T08:26:33;4.15;;;2.22;;
8040;SDS011;4063;48.140;10.250;2023-07-31T08:28:59;4.07;;;2.13;;
8040;SDS011;4063;48.140;10.250;2023-07-31T08:31:25;3.80;;;2.13;;
8040;SDS011;4063;48.140;10.250;2023-07-31T08:33:51;4.85;;;2.08;;
8040;SDS011;4063;48.140;10.250;2023-07-31T08:36:17;3.60;;;1.70;;
8040;SDS011;4063;48.140;10.250;2023-07-31T08:38:45;2.35;;;1.83;;
8040;SDS011;4063;48.140;10.250;2023-07-31T08:41:11;6.07;;;2.20;;
8040;SDS011;4063;48.140;10.250;2023-07-31T08:43:38;4.95;;;1.98;;
8040;SDS011;4063;48.140;10.250;2023-07-31T08:46:04;4.18;;;2.15;;
8040;SDS011;4063;48.140;10.250;2023-07-31T08:48:31;2.20;;;1.65;;
8040;SDS011;4063;48.140;10.250;2023-07-31T08:51:00;5.35;;;1.85;;
8040;SDS011;4063;48.140;10.250;2023-07-31T08:53:26;2.45;;;1.63;;
8040;SDS011;4063;48.140;10.250;2023-07-31T08:55:52;5.53;;;2.10;;
8040;SDS011;4063;48.140;10.250;2023-07-31T08:58:19;4.47;;;1.90;;
8040;SDS011;4063;48.140;10.250;2023-07-31T09:00:46;3.47;;;2.00;;
8040;SDS011;4063;48.140;10.250;2023-07-31T09:03:13;3.13;;;1.80;;
8040;SDS011;4063;48.140;10.250;2023-07-31T09:05:42;2.13;;;1.75;;
8040;SDS011;4063;48.140;10.250;2023-07-31T09:08:09;3.60;;;2.10;;
8040;SDS011;4063;48.140;10.250;2023-07-31T09:10:40;2.75;;;1.85;;
8040;SDS011;4063;48.140;10.250;2023-07-31T09:13:06;3.05;;;1.80;;
8040;SDS011;4063;48.140;10.250;2023-07-31T09:15:32;4.35;;;2.38;;
8040;SDS011;4063;48.140;10.250;2023-07-31T09:18:00;2.58;;;2.10;;
8040;SDS011;4063;48.140;10.250;2023-07-31T09:20:26;4.68;;;2.13;;
8040;SDS011;4063;48.140;10.250;2023-07-31T09:22:52;6.22;;;2.22;;
8040;SDS011;4063;48.140;10.250;2023-07-31T09:25:22;4.32;;;3.13;;
8040;SDS011;4063;48.140;10.250;2023-07-31T09:30:20;3.28;;;2.05;;
8040;SDS011;4063;48.140;10.250;2023-07-31T09:32:47;3.13;;;2.28;;
8040;SDS011;4063;48.140;10.250;2023-07-31T09:35:18;4.45;;;2.22;;
8040;SDS011;4063;48.140;10.250;2023-07-31T09:37:52;2.88;;;2.03;;
8040;SDS011;4063;48.140;10.250;2023-07-31T09:40:24;2.88;;;2.20;;
8040;SDS011;4063;48.140;10.250;2023-07-31T09:42:51;3.80;;;2.10;;
8040;SDS011;4063;48.140;10.250;2023-07-31T09:45:17;3.53;;;2.05;;
8040;SDS011;4063;48.140;10.250;2023-07-31T09:47:48;5.50;;;2.00;;
8040;SDS011;4063;48.140;10.250;2023-07-31T09:50:14;3.00;;;2.00;;
8040;SDS011;4063;48.140;10.250;2023-07-31T09:52:43;2.85;;;2.15;;
8040;SDS011;4063;48.140;10.250;2023-07-31T09:55:09;2.60;;;1.77;;
8040;SDS011;4063;48.140;10.250;2023-07-31T09:57:45;4.25;;;2.10;;
8040;SDS011;4063;48.140;10.250;2023-07-31T10:00:12;6.80;;;2.20;;
8040;SDS011;4063;48.140;10.250;2023-07-31T10:02:38;3.75;;;2.30;;
8040;SDS011;4063;48.140;10.250;2023-07-31T10:05:05;3.95;;;2.15;;
8040;SDS011;4063;48.140;10.250;2023-07-31T10:07:33;2.63;;;1.90;;
8040;SDS011;4063;48.140;10.250;2023-07-31T10:10:01;7.70;;;2.53;;
8040;SDS011;4063;48.140;10.250;2023-07-31T10:12:28;3.05;;;2.05;;
8040;SDS011;4063;48.140;10.250;2023-07-31T10:14:55;3.53;;;2.15;;
8040;SDS011;4063;48.140;10.250;2023-07-31T10:17:22;5.03;;;2.22;;
8040;SDS011;4063;48.140;10.250;2023-07-31T10:19:49;2.47;;;2.00;;
8040;SDS011;4063;48.140;10.250;2023-07-31T10:22:15;4.22;;;2.00;;
8040;SDS011;4063;48.140;10.250;2023-07-31T10:24:43;5.15;;;2.65;;
8040;SDS011;4063;48.140;10.250;2023-07-31T10:27:10;2.72;;;2.00;;
8040;SDS011;4063;48.140;10.250;2023-07-31T10:29:40;3.78;;;2.42;;
8040;SDS011;4063;48.140;10.250;2023-07-31T10:32:07;3.38;;;1.92;;
8040;SDS011;4063;48.140;10.250;2023-07-31T10:34:39;3.30;;;2.05;;
8040;SDS011;4063;48.140;10.250;2023-07-31T10:39:57;5.10;;;1.92;;
8040;SDS011;4063;48.140;10.250;2023-07-31T10:44:59;4.75;;;1.75;;
8040;SDS011;4063;48.140;10.250;2023-07-31T10:47:25;3.10;;;1.90;;
8040;SDS011;4063;48.140;10.250;2023-07-31T10:49:52;3.85;;;2.03;;
8040;SDS011;4063;48.140;10.250;2023-07-31T10:52:21;4.40;;;2.13;;
8040;SDS011;4063;48.140;10.250;2023-07-31T10:54:48;3.45;;;1.80;;
8040;SDS011;4063;48.140;10.250;2023-07-31T10:57:21;1.92;;;1.73;;
8040;SDS011;4063;48.140;10.250;2023-07-31T10:59:47;3.45;;;1.80;;
8040;SDS011;4063;48.140;10.250;2023-07-31T11:02:26;3.05;;;2.03;;
8040;SDS011;4063;48.140;10.250;2023-07-31T11:05:08;5.50;;;1.92;;
8040;SDS011;4063;48.140;10.250;2023-07-31T11:08:07;2.50;;;1.70;;
8040;SDS011;4063;48.140;10.250;2023-07-31T11:10:26;2.85;;;1.80;;
8040;SDS011;4063;48.140;10.250;2023-07-31T11:12:52;3.95;;;1.80;;
8040;SDS011;4063;48.140;10.250;2023-07-31T11:15:18;2.33;;;1.77;;
8040;SDS011;4063;48.140;10.250;2023-07-31T11:17:44;2.08;;;1.70;;
8040;SDS011;4063;48.140;10.250;2023-07-31T11:20:10;3.17;;;1.73;;
8040;SDS011;4063;48.140;10.250;2023-07-31T11:22:36;2.17;;;1.42;;
8040;SDS011;4063;48.140;10.250;2023-07-31T11:25:03;4.20;;;1.80;;
8040;SDS011;4063;48.140;10.250;2023-07-31T11:27:38;3.60;;;1.83;;
8040;SDS011;4063;48.140;10.250;2023-07-31T11:30:05;2.15;;;1.60;;
8040;SDS011;4063;48.140;10.250;2023-07-31T11:32:32;5.63;;;1.70;;
8040;SDS011;4063;48.140;10.250;2023-07-31T11:34:58;3.85;;;1.75;;
8040;SDS011;4063;48.140;10.250;2023-07-31T11:37:24;1.70;;;1.50;;
8040;SDS011;4063;48.140;10.250;2023-07-31T11:39:59;2.55;;;1.63;;
8040;SDS011;4063;48.140;10.250;2023-07-31T11:42:28;1.85;;;1.42;;
8040;SDS011;4063;48.140;10.250;2023-07-31T11:44:54;4.45;;;1.65;;
8040;SDS011;4063;48.140;10.250;2023-07-31T11:47:20;3.03;;;1.77;;
8040;SDS011;4063;48.140;10.250;2023-07-31T11:49:46;2.15;;;1.60;;
8040;SDS011;4063;48.140;10.250;2023-07-31T11:52:13;2.50;;;1.70;;
8040;SDS011;4063;48.140;10.250;2023-07-31T11:54:40;3.33;;;1.80;;
8040;SDS011;4063;48.140;10.250;2023-07-31T11:57:06;2.88;;;1.40;;
8040;SDS011;4063;48.140;10.250;2023-07-31T11:59:33;1.95;;;1.60;;
8040;SDS011;4063;48.140;10.250;2023-07-31T12:01:59;5.10;;;2.15;;
8040;SDS011;4063;48.140;10.250;2023-07-31T12:04:25;2.88;;;2.25;;
8040;SDS011;4063;48.140;10.250;2023-07-31T12:06:52;7.50;;;3.65;;
8040;SDS011;4063;48.140;10.250;2023-07-31T12:09:18;2.20;;;1.60;;
8040;SDS011;4063;48.140;10.250;2023-07-31T12:11:45;2.58;;;1.70;;
8040;SDS011;4063;48.140;10.250;2023-07-31T12:14:24;5.10;;;3.50;;
8040;SDS011;4063;48.140;10.250;2023-07-31T12:16:58;8.07;;;3.88;;
8040;SDS011;4063;48.140;10.250;2023-07-31T12:19:25;2.33;;;2.00;;
8040;SDS011;4063;48.140;10.250;2023-07-31T12:21:55;3.97;;;2.53;;
8040;SDS011;4063;48.140;10.250;2023-07-31T12:24:21;2.92;;;1.85;;
8040;SDS011;4063;48.140;10.250;2023-07-31T12:26:48;3.47;;;2.28;;
8040;SDS011;4063;48.140;10.250;2023-07-31T12:29:14;2.55;;;1.90;;
8040;SDS011;4063;48.140;10.250;2023-07-31T12:31:43;3.53;;;2.20;;
8040;SDS011;4063;48.140;10.250;2023-07-31T12:34:18;3.63;;;1.95;;
8040;SDS011;4063;48.140;10.250;2023-07-31T12:36:45;2.25;;;1.88;;
8040;SDS011;4063;48.140;10.250;2023-07-31T12:39:13;3.55;;;2.00;;
8040;SDS011;4063;48.140;10.250;2023-07-31T12:41:39;3.28;;;2.03;;
8040;SDS011;4063;48.140;10.250;2023-07-31T12:44:05;3.67;;;2.13;;
8040;SDS011;4063;48.140;10.250;2023-07-31T12:46:31;2.55;;;1.73;;
8040;SDS011;4063;48.140;10.250;2023-07-31T12:48:58;7.60;;;3.75;;
8040;SDS011;4063;48.140;10.250;2023-07-31T12:51:24;3.25;;;2.20;;
8040;SDS011;4063;48.140;10.250;2023-07-31T12:53:50;2.80;;;1.83;;
8040;SDS011;4063;48.140;10.250;2023-07-31T12:56:16;6.07;;;2.00;;
8040;SDS011;4063;48.140;10.250;2023-07-31T12:58:42;3.38;;;2.88;;
8040;SDS011;4063;48.140;10.250;2023-07-31T13:01:08;8.02;;;2.55;;
8040;SDS011;4063;48.140;10.250;2023-07-31T13:03:34;6.75;;;3.45;;
8040;SDS011;4063;48.140;10.250;2023-07-31T13:06:00;4.63;;;2.50;;
8040;SDS011;4063;48.140;10.250;2023-07-31T13:08:26;9.40;;;4.72;;
8040;SDS011;4063;48.140;10.250;2023-07-31T13:10:52;9.13;;;4.30;;
8040;SDS011;4063;48.140;10.250;2023-07-31T13:13:18;6.22;;;3.67;;
8040;SDS011;4063;48.140;10.250;2023-07-31T13:15:44;4.55;;;2.65;;
8040;SDS011;4063;48.140;10.250;2023-07-31T13:18:10;2.85;;;1.75;;
8040;SDS011;4063;48.140;10.250;2023-07-31T13:20:36;2.67;;;2.20;;
8040;SDS011;4063;48.140;10.250;2023-07-31T13:23:02;4.47;;;2.17;;
8040;SDS011;4063;48.140;10.250;2023-07-31T13:25:28;3.95;;;2.20;;
8040;SDS011;4063;48.140;10.250;2023-07-31T13:27:55;2.88;;;1.98;;
8040;SDS011;4063;48.140;10.250;2023-07-31T13:30:21;2.72;;;1.98;;
8040;SDS011;4063;48.140;10.250;2023-07-31T13:32:47;3.20;;;2.25;;
8040;SDS011;4063;48.140;10.250;2023-07-31T13:35:12;2.63;;;2.00;;
8040;SDS011;4063;48.140;10.250;2023-07-31T13:37:38;3.40;;;2.08;;
8040;SDS011;4063;48.140;10.250;2023-07-31T13:40:05;6.90;;;2.55;;
8040;SDS011;4063;48.140;10.250;2023-07-31T13:42:31;3.20;;;1.65;;
8040;SDS011;4063;48.140;10.250;2023-07-31T13:44:57;2.80;;;1.92;;
8040;SDS011;4063;48.140;10.250;2023-07-31T13:47:23;2.97;;;1.90;;
8040;SDS011;4063;48.140;10.250;2023-07-31T13:49:49;2.80;;;2.25;;
8040;SDS011;4063;48.140;10.250;2023-07-31T13:52:15;5.30;;;2.22;;
8040;SDS011;4063;48.140;10.250;2023-07-31T13:54:41;2.83;;;1.70;;
8040;SDS011;4063;48.140;10.250;2023-07-31T13:57:08;3.97;;;2.25;;
8040;SDS011;4063;48.140;10.250;2023-07-31T13:59:34;3.33;;;2.05;;
8040;SDS011;4063;48.140;10.250;2023-07-31T14:02:00;9.10;;;3.75;;
8040;SDS011;4063;48.140;10.250;2023-07-31T14:04:26;2.72;;;2.25;;
8040;SDS011;4063;48.140;10.250;2023-07-31T14:06:52;2.78;;;2.03;;
8040;SDS011;4063;48.140;10.250;2023-07-31T14:09:18;2.92;;;2.17;;
8040;SDS011;4063;48.140;10.250;2023-07-31T14:11:44;3.10;;;2.22;;
8040;SDS011;4063;48.140;10.250;2023-07-31T14:14:10;4.90;;;3.42;;
8040;SDS011;4063;48.140;10.250;2023-07-31T14:16:36;5.85;;;3.42;;
8040;SDS011;4063;48.140;10.250;2023-07-31T14:19:02;4.50;;;3.05;;
8040;SDS011;4063;48.140;10.250;2023-07-31T14:21:28;6.53;;;2.55;;
8040;SDS011;4063;48.140;10.250;2023-07-31T14:23:54;2.65;;;2.22;;
8040;SDS011;4063;48.140;10.250;2023-07-31T14:26:20;5.63;;;3.00;;
8040;SDS011;4063;48.140;10.250;2023-07-31T14:28:46;5.18;;;3.42;;
8040;SDS011;4063;48.140;10.250;2023-07-31T14:31:12;2.40;;;2.20;;
8040;SDS011;4063;48.140;10.250;2023-07-31T14:33:38;4.93;;;2.40;;
8040;SDS011;4063;48.140;10.250;2023-07-31T14:36:04;3.30;;;2.40;;
8040;SDS011;4063;48.140;10.250;2023-07-31T14:38:30;7.00;;;2.13;;
8040;SDS011;4063;48.140;10.250;2023-07-31T14:40:56;3.92;;;2.35;;
8040;SDS011;4063;48.140;10.250;2023-07-31T14:43:22;2.53;;;2.25;;
8040;SDS011;4063;48.140;10.250;2023-07-31T14:45:48;2.45;;;1.92;;
8040;SDS011;4063;48.140;10.250;2023-07-31T14:48:14;3.00;;;2.03;;
8040;SDS011;4063;48.140;10.250;2023-07-31T14:50:40;4.57;;;2.25;;
8040;SDS011;4063;48.140;10.250;2023-07-31T14:53:06;2.80;;;2.00;;
8040;SDS011;4063;48.140;10.250;2023-07-31T14:55:32;3.97;;;2.13;;
8040;SDS011;4063;48.140;10.250;2023-07-31T14:57:58;3.13;;;2.20;;
8040;SDS011;4063;48.140;10.250;2023-07-31T15:00:24;3.47;;;2.10;;
8040;SDS011;4063;48.140;10.250;2023-07-31T15:02:51;3.70;;;2.25;;
8040;SDS011;4063;48.140;10.250;2023-07-31T15:05:17;3.83;;;2.35;;
8040;SDS011;4063;48.140;10.250;2023-07-31T15:07:43;2.63;;;2.20;;
8040;SDS011;4063;48.140;10.250;2023-07-31T15:10:09;3.40;;;2.25;;
8040;SDS011;4063;48.140;10.250;2023-07-31T15:12:35;5.05;;;2.13;;